createdAt,value
2022-12-20T00:16:59.713Z,1659.00
2022-12-20T00:19:59.536Z,1659.00
2022-12-20T00:20:59.413Z,1662.00
2022-12-20T00:23:59.338Z,1664.00
2022-12-20T00:24:59.138Z,1663.00
2022-12-20T00:26:59.171Z,1666.00
2022-12-20T00:27:59.979Z,1667.00
2022-12-20T00:38:58.299Z,1683.00
2022-12-20T00:39:59.731Z,1684.00
2022-12-20T00:42:58.011Z,1683.00
2022-12-20T00:43:58.222Z,1682.00
2022-12-20T00:44:57.966Z,1680.00
2022-12-20T00:46:58.331Z,1688.00
2022-12-20T00:47:57.741Z,1686.00
2022-12-20T00:48:57.654Z,1692.00
2022-12-20T00:49:57.655Z,1693.00
2022-12-20T00:50:57.656Z,1698.00
2022-12-20T00:51:57.454Z,1697.00
2022-12-20T00:52:57.369Z,1698.00
2022-12-20T00:54:57.282Z,1698.00
2022-12-20T00:56:58.766Z,1697.00
2022-12-20T01:02:57.354Z,1705.00
2022-12-20T01:16:57.802Z,1724.00
2022-12-20T01:17:57.731Z,1728.00
2022-12-20T01:20:57.249Z,1729.00
2022-12-20T03:00:49.104Z,1862.00
2022-12-20T03:02:49.410Z,1870.00
2022-12-20T03:04:48.846Z,1875.00
2022-12-20T03:05:48.725Z,1886.00
2022-12-20T03:06:51.803Z,1890.00
2022-12-20T03:07:48.636Z,1892.00
2022-12-20T03:08:48.539Z,1892.00
2022-12-20T03:09:50.301Z,1889.00
2022-12-20T03:10:48.452Z,1898.00
2022-12-20T03:11:48.361Z,1901.00
2022-12-20T03:12:48.815Z,1906.00
2022-12-20T03:14:48.191Z,1906.00
2022-12-20T03:15:48.277Z,1909.00
2022-12-20T03:16:48.165Z,1907.00
2022-12-20T03:17:47.985Z,1909.00
2022-12-20T03:18:48.351Z,1907.00
2022-12-20T03:19:48.327Z,1906.00
2022-12-20T03:20:47.799Z,1906.00
2022-12-20T03:21:47.825Z,1908.00
2022-12-20T03:22:47.811Z,1908.00
2022-12-20T03:23:47.620Z,1912.00
2022-12-20T03:24:47.851Z,1915.00
2022-12-20T03:25:47.875Z,1926.00
2022-12-20T03:26:47.429Z,1926.00
2022-12-20T03:27:47.355Z,1938.00
2022-12-20T03:28:50.334Z,1942.00
2022-12-20T03:29:47.243Z,1945.00
2022-12-20T03:31:47.399Z,1957.00
2022-12-20T03:34:47.319Z,2002.00
2022-12-20T03:49:47.793Z,1989.00
2022-12-20T03:53:47.315Z,1998.00
2022-12-20T04:10:47.612Z,2032.00
2022-12-20T16:08:05.722Z,957.00
2022-12-20T16:31:03.057Z,802.00
2022-12-20T16:32:02.968Z,800.00
2022-12-20T16:33:02.754Z,802.00
2022-12-20T16:34:02.632Z,800.00
2022-12-20T16:35:02.519Z,796.00
2022-12-20T16:36:02.388Z,798.00
2022-12-20T16:37:02.269Z,794.00
2022-12-20T16:38:02.156Z,789.00
2022-12-20T16:39:02.024Z,784.00
2022-12-20T16:40:01.963Z,783.00
2022-12-20T16:41:01.749Z,782.00
2022-12-20T16:42:01.646Z,780.00
2022-12-20T16:43:01.502Z,781.00
2022-12-20T16:44:01.371Z,777.00
2022-12-20T16:45:01.237Z,775.00
2022-12-20T16:46:01.123Z,776.00
2022-12-20T16:47:01.084Z,772.00
2022-12-20T16:48:00.849Z,769.00
2022-12-20T16:49:00.736Z,767.00
2022-12-20T16:50:00.609Z,768.00
2022-12-20T16:51:00.489Z,768.00
2022-12-20T16:52:00.373Z,767.00
2022-12-20T16:53:00.224Z,765.00
2022-12-20T17:23:44.538Z,728.00
2022-12-20T18:04:43.113Z,685.00
2022-12-20T18:36:42.037Z,658.00
2022-12-20T18:38:41.976Z,657.00
2022-12-20T18:39:41.947Z,653.00
2022-12-20T18:40:41.919Z,652.00
2022-12-20T18:41:41.890Z,648.00
2022-12-20T18:42:41.865Z,648.00
2022-12-20T18:43:41.836Z,647.00
2022-12-20T18:44:41.804Z,647.00
2022-12-20T18:45:41.811Z,642.00
2022-12-20T18:46:41.765Z,640.00
2022-12-20T18:47:41.717Z,638.00
2022-12-20T18:48:41.696Z,638.00
2022-12-20T18:49:41.670Z,638.00
2022-12-20T18:50:41.639Z,642.00
2022-12-20T18:51:41.624Z,642.00
2022-12-20T18:52:41.586Z,642.00
2022-12-20T18:53:41.555Z,642.00
2022-12-20T18:54:41.548Z,639.00
2022-12-20T18:55:41.506Z,636.00
2022-12-20T18:56:41.490Z,636.00
2022-12-20T18:57:41.461Z,634.00
2022-12-20T18:58:41.459Z,630.00
2022-12-20T18:59:41.425Z,628.00
2022-12-20T19:00:41.401Z,626.00
2022-12-20T19:01:41.639Z,622.00
2022-12-20T19:02:41.489Z,622.00
2022-12-20T19:03:41.402Z,621.00
2022-12-20T19:04:41.326Z,621.00
2022-12-20T19:05:41.293Z,622.00
2022-12-20T19:06:41.284Z,619.00
2022-12-20T19:07:41.243Z,617.00
2022-12-20T19:08:41.245Z,617.00
2022-12-20T19:09:41.204Z,617.00
2022-12-20T19:10:41.163Z,617.00
2022-12-20T19:11:41.132Z,620.00
2022-12-20T19:12:41.110Z,621.00
2022-12-20T19:13:41.091Z,622.00
2022-12-20T19:14:41.069Z,622.00
2022-12-20T19:15:41.056Z,622.00
2022-12-20T19:16:41.125Z,621.00
2022-12-20T19:17:41.041Z,619.00
2022-12-20T19:18:40.998Z,616.00
2022-12-20T19:19:40.967Z,616.00
2022-12-20T19:20:40.936Z,616.00
2022-12-20T19:21:40.941Z,620.00
2022-12-20T19:22:40.902Z,623.00
2022-12-20T19:23:40.873Z,621.00
2022-12-20T19:24:40.864Z,620.00
2022-12-20T19:25:40.827Z,618.00
2022-12-20T19:26:40.817Z,616.00
2022-12-20T19:27:40.770Z,618.00
2022-12-20T19:28:40.762Z,615.00
2022-12-20T19:29:40.781Z,612.00
2022-12-20T19:30:40.724Z,614.00
2022-12-20T19:31:40.726Z,616.00
2022-12-20T19:32:40.663Z,613.00
2022-12-20T19:35:56.708Z,611.00
2022-12-20T19:36:41.585Z,612.00
2022-12-20T22:34:35.104Z,553.00
2022-12-20T22:35:35.070Z,552.00
2022-12-20T22:36:35.040Z,548.00
2022-12-20T22:38:34.961Z,547.00
2022-12-20T22:39:34.932Z,547.00
2022-12-20T22:40:34.909Z,550.00
2022-12-20T22:41:35.102Z,551.00
2022-12-20T22:42:34.843Z,553.00
2022-12-20T22:43:34.814Z,551.00
2022-12-20T22:44:34.776Z,552.00
2022-12-20T22:45:34.767Z,552.00
2022-12-20T22:46:34.791Z,552.00
2022-12-20T22:47:34.717Z,551.00
2022-12-20T22:48:34.663Z,551.00
2022-12-20T22:49:34.639Z,550.00
2022-12-20T22:50:34.608Z,546.00
2022-12-20T22:51:34.587Z,544.00
2022-12-20T22:52:34.552Z,544.00
2022-12-20T22:53:34.518Z,546.00
2022-12-20T22:54:34.476Z,545.00
2022-12-20T22:55:34.507Z,546.00
2022-12-20T22:56:34.414Z,547.00
2022-12-20T22:57:34.389Z,546.00
2022-12-20T22:58:34.343Z,546.00
2022-12-20T22:59:34.321Z,546.00
2022-12-20T23:00:34.270Z,548.00
2022-12-20T23:01:34.340Z,546.00
2022-12-20T23:02:34.342Z,547.00
2022-12-20T23:03:34.394Z,547.00
2022-12-20T23:25:33.486Z,536.00
2022-12-20T23:26:33.446Z,535.00
2022-12-20T23:27:33.414Z,531.00
2022-12-20T23:28:33.387Z,533.00
2022-12-20T23:29:33.361Z,532.00
2022-12-20T23:30:33.337Z,535.00
2022-12-20T23:31:33.304Z,536.00
2022-12-20T23:32:33.282Z,537.00
2022-12-20T23:33:33.233Z,534.00
2022-12-20T23:34:33.192Z,535.00
2022-12-20T23:35:33.161Z,534.00
2022-12-20T23:36:33.208Z,534.00
2022-12-20T23:37:33.107Z,532.00
2022-12-20T23:38:33.071Z,532.00
2022-12-20T23:39:33.044Z,529.00
2022-12-20T23:40:33.010Z,530.00
2022-12-20T23:41:33.008Z,530.00
2022-12-20T23:42:32.951Z,528.00
2022-12-20T23:43:32.933Z,527.00
2022-12-20T23:44:32.888Z,527.00
2022-12-20T23:45:32.921Z,524.00
2022-12-20T23:46:32.890Z,522.00
2022-12-20T23:47:32.818Z,520.00
2022-12-20T23:48:32.799Z,521.00
2022-12-20T23:50:32.744Z,522.00
2022-12-20T23:51:32.728Z,521.00
2022-12-20T23:52:32.723Z,520.00
2022-12-20T23:53:32.689Z,518.00
2022-12-20T23:54:32.651Z,519.00
2022-12-20T23:55:32.614Z,519.00
2022-12-20T23:56:32.585Z,519.00
2022-12-20T23:57:32.565Z,521.00
2022-12-20T23:58:32.544Z,519.00
2022-12-20T23:59:32.524Z,518.00
